sensor_id;sensor_type;location;lat;lon;timestamp;P1;durP1;ratioP1;P2;durP2;ratioP2
5967;SDS011;3010;51.028;4.170;2023-04-24T00:01:18;20.00;;;12.17;;
5967;SDS011;3010;51.028;4.170;2023-04-24T00:03:45;23.40;;;12.60;;
5967;SDS011;3010;51.028;4.170;2023-04-24T00:06:11;15.87;;;12.40;;
5967;SDS011;3010;51.028;4.170;2023-04-24T00:08:38;21.73;;;12.27;;
5967;SDS011;3010;51.028;4.170;2023-04-24T00:11:04;23.10;;;14.60;;
5967;SDS011;3010;51.028;4.170;2023-04-24T00:13:31;21.10;;;12.40;;
5967;SDS011;3010;51.028;4.170;2023-04-24T00:15:58;22.07;;;12.57;;
5967;SDS011;3010;51.028;4.170;2023-04-24T00:18:24;20.23;;;12.93;;
5967;SDS011;3010;51.028;4.170;2023-04-24T00:20:51;19.73;;;14.00;;
5967;SDS011;3010;51.028;4.170;2023-04-24T00:23:17;23.08;;;15.80;;
5967;SDS011;3010;51.028;4.170;2023-04-24T00:25:44;19.33;;;13.43;;
5967;SDS011;3010;51.028;4.170;2023-04-24T00:28:11;21.90;;;13.27;;
5967;SDS011;3010;51.028;4.170;2023-04-24T00:30:37;19.27;;;12.23;;
5967;SDS011;3010;51.028;4.170;2023-04-24T00:33:04;20.57;;;12.13;;
5967;SDS011;3010;51.028;4.170;2023-04-24T00:35:30;25.57;;;12.53;;
5967;SDS011;3010;51.028;4.170;2023-04-24T00:37:57;20.53;;;13.00;;
5967;SDS011;3010;51.028;4.170;2023-04-24T00:40:23;19.30;;;13.30;;
5967;SDS011;3010;51.028;4.170;2023-04-24T00:42:50;20.67;;;12.40;;
5967;SDS011;3010;51.028;4.170;2023-04-24T00:45:17;17.67;;;12.00;;
5967;SDS011;3010;51.028;4.170;2023-04-24T00:47:43;21.23;;;13.00;;
5967;SDS011;3010;51.028;4.170;2023-04-24T00:50:10;18.30;;;12.73;;
5967;SDS011;3010;51.028;4.170;2023-04-24T00:52:36;16.93;;;12.67;;
5967;SDS011;3010;51.028;4.170;2023-04-24T00:55:03;20.67;;;12.20;;
5967;SDS011;3010;51.028;4.170;2023-04-24T00:57:30;20.60;;;12.63;;
5967;SDS011;3010;51.028;4.170;2023-04-24T00:59:56;20.23;;;12.77;;
5967;SDS011;3010;51.028;4.170;2023-04-24T01:02:23;20.07;;;13.97;;
5967;SDS011;3010;51.028;4.170;2023-04-24T01:04:52;23.98;;;14.77;;
5967;SDS011;3010;51.028;4.170;2023-04-24T01:07:19;23.58;;;15.02;;
5967;SDS011;3010;51.028;4.170;2023-04-24T01:09:45;19.30;;;12.53;;
5967;SDS011;3010;51.028;4.170;2023-04-24T01:12:12;14.70;;;11.23;;
5967;SDS011;3010;51.028;4.170;2023-04-24T01:14:38;16.77;;;11.53;;
5967;SDS011;3010;51.028;4.170;2023-04-24T01:17:05;19.17;;;12.43;;
5967;SDS011;3010;51.028;4.170;2023-04-24T01:19:32;17.87;;;10.83;;
5967;SDS011;3010;51.028;4.170;2023-04-24T01:21:58;20.08;;;13.62;;
5967;SDS011;3010;51.028;4.170;2023-04-24T01:24:25;17.75;;;12.70;;
5967;SDS011;3010;51.028;4.170;2023-04-24T01:26:51;14.37;;;11.47;;
5967;SDS011;3010;51.028;4.170;2023-04-24T01:29:18;13.60;;;10.07;;
5967;SDS011;3010;51.028;4.170;2023-04-24T01:31:45;16.77;;;11.73;;
5967;SDS011;3010;51.028;4.170;2023-04-24T01:34:11;11.47;;;9.13;;
5967;SDS011;3010;51.028;4.170;2023-04-24T01:36:38;13.40;;;9.50;;
5967;SDS011;3010;51.028;4.170;2023-04-24T01:39:04;10.73;;;9.27;;
5967;SDS011;3010;51.028;4.170;2023-04-24T01:41:31;10.57;;;9.10;;
5967;SDS011;3010;51.028;4.170;2023-04-24T01:43:57;12.80;;;8.90;;
5967;SDS011;3010;51.028;4.170;2023-04-24T01:46:24;10.27;;;9.18;;
5967;SDS011;3010;51.028;4.170;2023-04-24T01:48:51;10.43;;;8.20;;
5967;SDS011;3010;51.028;4.170;2023-04-24T01:51:17;8.43;;;7.33;;
5967;SDS011;3010;51.028;4.170;2023-04-24T01:53:44;8.33;;;7.03;;
5967;SDS011;3010;51.028;4.170;2023-04-24T01:56:10;8.03;;;7.10;;
5967;SDS011;3010;51.028;4.170;2023-04-24T01:58:37;8.77;;;7.00;;
5967;SDS011;3010;51.028;4.170;2023-04-24T02:01:05;9.77;;;7.17;;
5967;SDS011;3010;51.028;4.170;2023-04-24T02:03:30;8.37;;;7.53;;
5967;SDS011;3010;51.028;4.170;2023-04-24T02:05:57;10.30;;;7.97;;
5967;SDS011;3010;51.028;4.170;2023-04-24T02:08:23;8.37;;;7.60;;
5967;SDS011;3010;51.028;4.170;2023-04-24T02:10:50;10.33;;;8.07;;
5967;SDS011;3010;51.028;4.170;2023-04-24T02:13:16;8.50;;;7.00;;
5967;SDS011;3010;51.028;4.170;2023-04-24T02:15:43;10.57;;;7.70;;
5967;SDS011;3010;51.028;4.170;2023-04-24T02:18:10;11.13;;;8.20;;
5967;SDS011;3010;51.028;4.170;2023-04-24T02:20:36;9.93;;;8.27;;
5967;SDS011;3010;51.028;4.170;2023-04-24T02:23:03;11.67;;;7.97;;
5967;SDS011;3010;51.028;4.170;2023-04-24T02:25:29;10.77;;;8.50;;
5967;SDS011;3010;51.028;4.170;2023-04-24T02:27:56;11.27;;;8.83;;
5967;SDS011;3010;51.028;4.170;2023-04-24T02:30:23;12.20;;;9.00;;
5967;SDS011;3010;51.028;4.170;2023-04-24T02:32:49;11.07;;;8.63;;
5967;SDS011;3010;51.028;4.170;2023-04-24T02:35:16;15.07;;;8.87;;
5967;SDS011;3010;51.028;4.170;2023-04-24T02:37:42;12.77;;;9.70;;
5967;SDS011;3010;51.028;4.170;2023-04-24T02:40:09;10.70;;;8.97;;
5967;SDS011;3010;51.028;4.170;2023-04-24T02:42:36;12.83;;;9.33;;
5967;SDS011;3010;51.028;4.170;2023-04-24T02:45:02;14.67;;;10.10;;
5967;SDS011;3010;51.028;4.170;2023-04-24T02:47:29;14.30;;;9.90;;
5967;SDS011;3010;51.028;4.170;2023-04-24T02:49:55;14.30;;;10.53;;
5967;SDS011;3010;51.028;4.170;2023-04-24T02:52:22;11.13;;;9.43;;
5967;SDS011;3010;51.028;4.170;2023-04-24T02:54:48;12.57;;;9.70;;
5967;SDS011;3010;51.028;4.170;2023-04-24T02:57:15;14.13;;;9.47;;
5967;SDS011;3010;51.028;4.170;2023-04-24T02:59:42;13.37;;;10.20;;
5967;SDS011;3010;51.028;4.170;2023-04-24T03:02:08;13.93;;;9.57;;
5967;SDS011;3010;51.028;4.170;2023-04-24T03:04:35;13.33;;;9.63;;
5967;SDS011;3010;51.028;4.170;2023-04-24T03:07:01;13.80;;;9.43;;
5967;SDS011;3010;51.028;4.170;2023-04-24T03:09:28;13.30;;;9.83;;
5967;SDS011;3010;51.028;4.170;2023-04-24T03:11:55;14.10;;;10.20;;
5967;SDS011;3010;51.028;4.170;2023-04-24T03:14:21;14.53;;;9.83;;
5967;SDS011;3010;51.028;4.170;2023-04-24T03:16:48;12.30;;;9.10;;
5967;SDS011;3010;51.028;4.170;2023-04-24T03:19:14;17.02;;;12.13;;
5967;SDS011;3010;51.028;4.170;2023-04-24T03:21:41;13.50;;;10.57;;
5967;SDS011;3010;51.028;4.170;2023-04-24T03:24:08;13.33;;;9.97;;
5967;SDS011;3010;51.028;4.170;2023-04-24T03:26:34;13.00;;;9.67;;
5967;SDS011;3010;51.028;4.170;2023-04-24T03:29:01;15.30;;;11.60;;
5967;SDS011;3010;51.028;4.170;2023-04-24T03:31:27;12.37;;;9.50;;
5967;SDS011;3010;51.028;4.170;2023-04-24T03:33:54;11.30;;;9.60;;
5967;SDS011;3010;51.028;4.170;2023-04-24T03:36:20;10.20;;;8.83;;
5967;SDS011;3010;51.028;4.170;2023-04-24T03:38:47;11.03;;;8.67;;
5967;SDS011;3010;51.028;4.170;2023-04-24T03:41:14;11.60;;;8.93;;
5967;SDS011;3010;51.028;4.170;2023-04-24T03:43:40;12.95;;;10.85;;
5967;SDS011;3010;51.028;4.170;2023-04-24T03:46:07;12.20;;;10.00;;
5967;SDS011;3010;51.028;4.170;2023-04-24T03:48:33;9.60;;;8.60;;
5967;SDS011;3010;51.028;4.170;2023-04-24T03:51:00;9.87;;;8.43;;
5967;SDS011;3010;51.028;4.170;2023-04-24T03:53:27;8.53;;;7.63;;
5967;SDS011;3010;51.028;4.170;2023-04-24T03:55:53;14.73;;;7.97;;
5967;SDS011;3010;51.028;4.170;2023-04-24T03:58:20;7.37;;;6.63;;
5967;SDS011;3010;51.028;4.170;2023-04-24T04:00:46;8.17;;;7.20;;
5967;SDS011;3010;51.028;4.170;2023-04-24T04:03:13;12.47;;;8.33;;
5967;SDS011;3010;51.028;4.170;2023-04-24T04:05:40;15.30;;;9.47;;
5967;SDS011;3010;51.028;4.170;2023-04-24T04:08:06;18.60;;;10.17;;
5967;SDS011;3010;51.028;4.170;2023-04-24T04:10:33;11.27;;;8.23;;
5967;SDS011;3010;51.028;4.170;2023-04-24T04:12:59;9.73;;;7.03;;
5967;SDS011;3010;51.028;4.170;2023-04-24T04:15:26;8.20;;;6.37;;
5967;SDS011;3010;51.028;4.170;2023-04-24T04:17:52;7.50;;;6.80;;
5967;SDS011;3010;51.028;4.170;2023-04-24T04:20:19;9.33;;;7.10;;
5967;SDS011;3010;51.028;4.170;2023-04-24T04:22:46;7.70;;;6.97;;
5967;SDS011;3010;51.028;4.170;2023-04-24T04:25:12;13.53;;;8.60;;
5967;SDS011;3010;51.028;4.170;2023-04-24T04:27:39;10.07;;;8.90;;
5967;SDS011;3010;51.028;4.170;2023-04-24T04:30:05;17.92;;;11.70;;
5967;SDS011;3010;51.028;4.170;2023-04-24T04:32:32;20.33;;;13.55;;
5967;SDS011;3010;51.028;4.170;2023-04-24T04:34:59;20.15;;;13.82;;
5967;SDS011;3010;51.028;4.170;2023-04-24T04:37:25;16.27;;;11.90;;
5967;SDS011;3010;51.028;4.170;2023-04-24T04:39:52;16.93;;;10.93;;
5967;SDS011;3010;51.028;4.170;2023-04-24T04:42:19;19.42;;;13.38;;
5967;SDS011;3010;51.028;4.170;2023-04-24T04:44:45;25.20;;;14.15;;
5967;SDS011;3010;51.028;4.170;2023-04-24T04:47:12;19.45;;;13.55;;
5967;SDS011;3010;51.028;4.170;2023-04-24T04:49:38;20.05;;;13.13;;
5967;SDS011;3010;51.028;4.170;2023-04-24T04:52:05;22.07;;;11.20;;
5967;SDS011;3010;51.028;4.170;2023-04-24T04:54:31;16.17;;;9.47;;
5967;SDS011;3010;51.028;4.170;2023-04-24T04:56:58;16.83;;;10.67;;
5967;SDS011;3010;51.028;4.170;2023-04-24T04:59:25;17.00;;;10.40;;
5967;SDS011;3010;51.028;4.170;2023-04-24T05:01:51;18.07;;;10.97;;
5967;SDS011;3010;51.028;4.170;2023-04-24T05:04:18;16.47;;;10.40;;
5967;SDS011;3010;51.028;4.170;2023-04-24T05:06:44;18.93;;;10.33;;
5967;SDS011;3010;51.028;4.170;2023-04-24T05:09:11;14.77;;;9.70;;
5967;SDS011;3010;51.028;4.170;2023-04-24T05:11:38;22.43;;;13.43;;
5967;SDS011;3010;51.028;4.170;2023-04-24T05:14:04;17.60;;;10.60;;
5967;SDS011;3010;51.028;4.170;2023-04-24T05:16:31;14.27;;;10.50;;
5967;SDS011;3010;51.028;4.170;2023-04-24T05:18:57;17.10;;;10.93;;
5967;SDS011;3010;51.028;4.170;2023-04-24T05:21:24;15.17;;;10.40;;
5967;SDS011;3010;51.028;4.170;2023-04-24T05:23:50;18.57;;;9.67;;
5967;SDS011;3010;51.028;4.170;2023-04-24T05:26:17;17.83;;;10.33;;
5967;SDS011;3010;51.028;4.170;2023-04-24T05:28:44;15.13;;;9.70;;
5967;SDS011;3010;51.028;4.170;2023-04-24T05:31:10;13.07;;;9.70;;
5967;SDS011;3010;51.028;4.170;2023-04-24T05:33:37;16.27;;;9.30;;
5967;SDS011;3010;51.028;4.170;2023-04-24T05:36:03;16.90;;;11.10;;
5967;SDS011;3010;51.028;4.170;2023-04-24T05:38:30;20.37;;;13.23;;
5967;SDS011;3010;51.028;4.170;2023-04-24T05:40:57;20.10;;;11.03;;
5967;SDS011;3010;51.028;4.170;2023-04-24T05:43:23;22.62;;;13.77;;
5967;SDS011;3010;51.028;4.170;2023-04-24T05:45:50;19.03;;;11.63;;
5967;SDS011;3010;51.028;4.170;2023-04-24T05:48:16;16.67;;;11.17;;
5967;SDS011;3010;51.028;4.170;2023-04-24T05:50:43;14.23;;;11.03;;
5967;SDS011;3010;51.028;4.170;2023-04-24T05:53:10;19.27;;;11.10;;
5967;SDS011;3010;51.028;4.170;2023-04-24T05:55:36;20.50;;;11.40;;
5967;SDS011;3010;51.028;4.170;2023-04-24T05:58:03;19.77;;;11.27;;
5967;SDS011;3010;51.028;4.170;2023-04-24T06:00:29;15.80;;;10.47;;
5967;SDS011;3010;51.028;4.170;2023-04-24T06:02:56;22.90;;;11.87;;
5967;SDS011;3010;51.028;4.170;2023-04-24T06:05:22;17.87;;;11.93;;
5967;SDS011;3010;51.028;4.170;2023-04-24T06:07:49;18.57;;;11.57;;
5967;SDS011;3010;51.028;4.170;2023-04-24T06:10:16;17.77;;;11.43;;
5967;SDS011;3010;51.028;4.170;2023-04-24T06:12:42;21.67;;;12.10;;
5967;SDS011;3010;51.028;4.170;2023-04-24T06:15:09;20.40;;;12.10;;
5967;SDS011;3010;51.028;4.170;2023-04-24T06:17:35;22.43;;;11.57;;
5967;SDS011;3010;51.028;4.170;2023-04-24T06:20:02;23.73;;;15.50;;
5967;SDS011;3010;51.028;4.170;2023-04-24T06:22:29;20.97;;;12.50;;
5967;SDS011;3010;51.028;4.170;2023-04-24T06:24:55;21.77;;;12.77;;
5967;SDS011;3010;51.028;4.170;2023-04-24T06:27:22;23.47;;;12.37;;
5967;SDS011;3010;51.028;4.170;2023-04-24T06:29:48;24.83;;;13.67;;
5967;SDS011;3010;51.028;4.170;2023-04-24T06:32:15;22.63;;;12.30;;
5967;SDS011;3010;51.028;4.170;2023-04-24T06:34:41;30.03;;;14.37;;
5967;SDS011;3010;51.028;4.170;2023-04-24T06:37:08;28.27;;;13.13;;
5967;SDS011;3010;51.028;4.170;2023-04-24T06:39:35;20.67;;;12.93;;
5967;SDS011;3010;51.028;4.170;2023-04-24T06:42:01;22.47;;;13.40;;
5967;SDS011;3010;51.028;4.170;2023-04-24T06:44:28;20.77;;;13.67;;
5967;SDS011;3010;51.028;4.170;2023-04-24T06:46:54;23.27;;;12.97;;
5967;SDS011;3010;51.028;4.170;2023-04-24T06:49:21;25.00;;;14.47;;
5967;SDS011;3010;51.028;4.170;2023-04-24T06:51:48;21.77;;;13.37;;
5967;SDS011;3010;51.028;4.170;2023-04-24T06:54:14;24.23;;;13.63;;
5967;SDS011;3010;51.028;4.170;2023-04-24T06:56:41;30.80;;;17.02;;
5967;SDS011;3010;51.028;4.170;2023-04-24T06:59:07;25.83;;;14.43;;
5967;SDS011;3010;51.028;4.170;2023-04-24T07:01:34;27.67;;;14.37;;
5967;SDS011;3010;51.028;4.170;2023-04-24T07:04:01;22.20;;;13.33;;
5967;SDS011;3010;51.028;4.170;2023-04-24T07:06:27;27.17;;;16.23;;
5967;SDS011;3010;51.028;4.170;2023-04-24T07:08:54;23.47;;;13.33;;
5967;SDS011;3010;51.028;4.170;2023-04-24T07:11:20;22.27;;;12.30;;
5967;SDS011;3010;51.028;4.170;2023-04-24T07:13:47;26.50;;;12.47;;
5967;SDS011;3010;51.028;4.170;2023-04-24T07:16:13;24.20;;;12.60;;
5967;SDS011;3010;51.028;4.170;2023-04-24T07:18:40;23.00;;;12.90;;
5967;SDS011;3010;51.028;4.170;2023-04-24T07:21:07;25.88;;;14.77;;
5967;SDS011;3010;51.028;4.170;2023-04-24T07:23:33;23.77;;;12.73;;
5967;SDS011;3010;51.028;4.170;2023-04-24T07:26:00;23.00;;;12.23;;
5967;SDS011;3010;51.028;4.170;2023-04-24T07:28:26;23.07;;;12.53;;
5967;SDS011;3010;51.028;4.170;2023-04-24T07:30:53;23.67;;;14.32;;
5967;SDS011;3010;51.028;4.170;2023-04-24T07:33:20;20.53;;;11.07;;
5967;SDS011;3010;51.028;4.170;2023-04-24T07:35:46;25.07;;;11.27;;
5967;SDS011;3010;51.028;4.170;2023-04-24T07:38:13;16.13;;;9.50;;
5967;SDS011;3010;51.028;4.170;2023-04-24T07:40:39;13.60;;;7.53;;
5967;SDS011;3010;51.028;4.170;2023-04-24T07:43:06;14.60;;;7.60;;
5967;SDS011;3010;51.028;4.170;2023-04-24T07:45:33;16.20;;;7.80;;
5967;SDS011;3010;51.028;4.170;2023-04-24T07:47:59;10.13;;;6.43;;
5967;SDS011;3010;51.028;4.170;2023-04-24T07:50:26;7.17;;;6.07;;
5967;SDS011;3010;51.028;4.170;2023-04-24T07:52:52;11.90;;;6.80;;
5967;SDS011;3010;51.028;4.170;2023-04-24T07:55:19;14.25;;;8.02;;
5967;SDS011;3010;51.028;4.170;2023-04-24T07:57:45;9.50;;;7.07;;
5967;SDS011;3010;51.028;4.170;2023-04-24T08:00:12;16.50;;;8.60;;
5967;SDS011;3010;51.028;4.170;2023-04-24T08:02:39;15.60;;;7.20;;
5967;SDS011;3010;51.028;4.170;2023-04-24T08:05:05;12.57;;;7.60;;
5967;SDS011;3010;51.028;4.170;2023-04-24T08:07:32;10.50;;;7.10;;
5967;SDS011;3010;51.028;4.170;2023-04-24T08:09:58;16.40;;;6.93;;
5967;SDS011;3010;51.028;4.170;2023-04-24T08:12:25;11.57;;;7.00;;
5967;SDS011;3010;51.028;4.170;2023-04-24T08:14:52;14.40;;;7.33;;
5967;SDS011;3010;51.028;4.170;2023-04-24T08:17:18;16.30;;;7.40;;
5967;SDS011;3010;51.028;4.170;2023-04-24T08:19:45;10.97;;;6.67;;
5967;SDS011;3010;51.028;4.170;2023-04-24T08:22:11;12.77;;;6.50;;
5967;SDS011;3010;51.028;4.170;2023-04-24T08:24:38;11.13;;;5.90;;
5967;SDS011;3010;51.028;4.170;2023-04-24T08:27:04;10.67;;;5.73;;
5967;SDS011;3010;51.028;4.170;2023-04-24T08:29:31;10.53;;;5.67;;
5967;SDS011;3010;51.028;4.170;2023-04-24T08:31:58;14.37;;;5.30;;
5967;SDS011;3010;51.028;4.170;2023-04-24T08:34:24;8.03;;;5.97;;
5967;SDS011;3010;51.028;4.170;2023-04-24T08:36:51;9.17;;;6.10;;
5967;SDS011;3010;51.028;4.170;2023-04-24T08:39:17;11.10;;;6.47;;
5967;SDS011;3010;51.028;4.170;2023-04-24T08:41:44;12.83;;;7.27;;
5967;SDS011;3010;51.028;4.170;2023-04-24T08:44:11;9.37;;;6.87;;
5967;SDS011;3010;51.028;4.170;2023-04-24T08:46:37;11.87;;;7.20;;
5967;SDS011;3010;51.028;4.170;2023-04-24T08:49:04;10.37;;;6.77;;
5967;SDS011;3010;51.028;4.170;2023-04-24T08:51:30;10.97;;;7.23;;
5967;SDS011;3010;51.028;4.170;2023-04-24T08:53:57;12.80;;;6.87;;
5967;SDS011;3010;51.028;4.170;2023-04-24T08:56:24;18.67;;;8.67;;
5967;SDS011;3010;51.028;4.170;2023-04-24T08:58:53;12.63;;;8.37;;
5967;SDS011;3010;51.028;4.170;2023-04-24T09:01:19;12.57;;;7.90;;
5967;SDS011;3010;51.028;4.170;2023-04-24T09:03:47;11.20;;;7.07;;
5967;SDS011;3010;51.028;4.170;2023-04-24T09:06:13;11.53;;;6.87;;
5967;SDS011;3010;51.028;4.170;2023-04-24T09:08:39;7.37;;;6.03;;
5967;SDS011;3010;51.028;4.170;2023-04-24T09:11:06;8.87;;;5.77;;
5967;SDS011;3010;51.028;4.170;2023-04-24T09:13:32;9.73;;;5.53;;
5967;SDS011;3010;51.028;4.170;2023-04-24T09:15:59;7.90;;;5.67;;
5967;SDS011;3010;51.028;4.170;2023-04-24T09:18:26;8.10;;;5.53;;
5967;SDS011;3010;51.028;4.170;2023-04-24T09:21:02;6.33;;;5.77;;
5967;SDS011;3010;51.028;4.170;2023-04-24T09:23:29;6.50;;;4.70;;
5967;SDS011;3010;51.028;4.170;2023-04-24T09:25:55;6.30;;;5.20;;
5967;SDS011;3010;51.028;4.170;2023-04-24T09:28:25;8.90;;;5.50;;
5967;SDS011;3010;51.028;4.170;2023-04-24T09:30:48;6.10;;;5.17;;
5967;SDS011;3010;51.028;4.170;2023-04-24T09:33:14;6.93;;;5.03;;
5967;SDS011;3010;51.028;4.170;2023-04-24T09:35:41;5.50;;;5.00;;
5967;SDS011;3010;51.028;4.170;2023-04-24T09:38:07;8.57;;;4.80;;
5967;SDS011;3010;51.028;4.170;2023-04-24T09:40:34;7.00;;;4.80;;
5967;SDS011;3010;51.028;4.170;2023-04-24T09:43:00;6.23;;;5.30;;
5967;SDS011;3010;51.028;4.170;2023-04-24T09:45:27;8.63;;;5.13;;
5967;SDS011;3010;51.028;4.170;2023-04-24T09:47:54;8.87;;;4.77;;
5967;SDS011;3010;51.028;4.170;2023-04-24T09:50:20;7.70;;;4.90;;
5967;SDS011;3010;51.028;4.170;2023-04-24T09:52:55;5.87;;;5.28;;
5967;SDS011;3010;51.028;4.170;2023-04-24T09:55:16;5.50;;;4.83;;
5967;SDS011;3010;51.028;4.170;2023-04-24T09:57:50;6.07;;;4.57;;
5967;SDS011;3010;51.028;4.170;2023-04-24T10:00:20;5.53;;;4.97;;
5967;SDS011;3010;51.028;4.170;2023-04-24T10:02:45;7.80;;;4.67;;
5967;SDS011;3010;51.028;4.170;2023-04-24T10:05:11;4.83;;;4.33;;
5967;SDS011;3010;51.028;4.170;2023-04-24T10:07:38;6.30;;;5.07;;
5967;SDS011;3010;51.028;4.170;2023-04-24T10:10:05;8.00;;;4.67;;
5967;SDS011;3010;51.028;4.170;2023-04-24T10:12:31;5.80;;;4.53;;
5967;SDS011;3010;51.028;4.170;2023-04-24T10:14:58;4.90;;;4.50;;
5967;SDS011;3010;51.028;4.170;2023-04-24T10:17:25;7.37;;;5.10;;
5967;SDS011;3010;51.028;4.170;2023-04-24T10:19:51;5.70;;;4.50;;
5967;SDS011;3010;51.028;4.170;2023-04-24T10:22:18;4.83;;;4.53;;
5967;SDS011;3010;51.028;4.170;2023-04-24T10:24:44;5.40;;;4.90;;
5967;SDS011;3010;51.028;4.170;2023-04-24T10:27:11;5.00;;;4.50;;
5967;SDS011;3010;51.028;4.170;2023-04-24T10:29:37;7.63;;;5.37;;
5967;SDS011;3010;51.028;4.170;2023-04-24T10:32:06;4.60;;;4.20;;
5967;SDS011;3010;51.028;4.170;2023-04-24T10:34:31;7.53;;;4.27;;
5967;SDS011;3010;51.028;4.170;2023-04-24T10:36:57;3.87;;;3.67;;
5967;SDS011;3010;51.028;4.170;2023-04-24T10:39:24;6.20;;;4.80;;
5967;SDS011;3010;51.028;4.170;2023-04-24T10:41:50;5.30;;;4.80;;
5967;SDS011;3010;51.028;4.170;2023-04-24T10:44:17;4.53;;;4.13;;
5967;SDS011;3010;51.028;4.170;2023-04-24T10:46:44;8.53;;;4.30;;
5967;SDS011;3010;51.028;4.170;2023-04-24T10:49:10;5.47;;;4.23;;
5967;SDS011;3010;51.028;4.170;2023-04-24T10:54:26;3.87;;;3.60;;
5967;SDS011;3010;51.028;4.170;2023-04-24T10:59:45;4.10;;;3.70;;
5967;SDS011;3010;51.028;4.170;2023-04-24T11:02:14;7.27;;;4.60;;
5967;SDS011;3010;51.028;4.170;2023-04-24T11:04:44;4.40;;;4.10;;
5967;SDS011;3010;51.028;4.170;2023-04-24T11:07:13;4.90;;;4.50;;
5967;SDS011;3010;51.028;4.170;2023-04-24T11:09:40;4.97;;;4.50;;
5967;SDS011;3010;51.028;4.170;2023-04-24T11:12:07;5.37;;;4.40;;
5967;SDS011;3010;51.028;4.170;2023-04-24T11:20:08;4.00;;;3.80;;
5967;SDS011;3010;51.028;4.170;2023-04-24T11:22:38;5.05;;;4.25;;
5967;SDS011;3010;51.028;4.170;2023-04-24T11:25:04;4.23;;;3.87;;
5967;SDS011;3010;51.028;4.170;2023-04-24T11:27:31;3.53;;;3.33;;
5967;SDS011;3010;51.028;4.170;2023-04-24T11:30:01;4.00;;;3.70;;
5967;SDS011;3010;51.028;4.170;2023-04-24T11:32:28;4.47;;;4.00;;
5967;SDS011;3010;51.028;4.170;2023-04-24T11:34:57;5.07;;;4.53;;
5967;SDS011;3010;51.028;4.170;2023-04-24T11:37:27;4.40;;;4.03;;
5967;SDS011;3010;51.028;4.170;2023-04-24T11:39:58;5.13;;;4.37;;
5967;SDS011;3010;51.028;4.170;2023-04-24T11:42:24;4.47;;;4.18;;
5967;SDS011;3010;51.028;4.170;2023-04-24T11:44:54;4.37;;;4.07;;
5967;SDS011;3010;51.028;4.170;2023-04-24T11:47:29;4.33;;;3.90;;
5967;SDS011;3010;51.028;4.170;2023-04-24T11:49:55;4.87;;;4.47;;
5967;SDS011;3010;51.028;4.170;2023-04-24T11:52:22;3.90;;;3.63;;
5967;SDS011;3010;51.028;4.170;2023-04-24T11:54:49;3.87;;;3.50;;
5967;SDS011;3010;51.028;4.170;2023-04-24T11:57:15;5.80;;;3.90;;
5967;SDS011;3010;51.028;4.170;2023-04-24T11:59:42;4.60;;;3.50;;
5967;SDS011;3010;51.028;4.170;2023-04-24T12:02:08;4.00;;;3.70;;
5967;SDS011;3010;51.028;4.170;2023-04-24T12:04:39;4.20;;;3.87;;
5967;SDS011;3010;51.028;4.170;2023-04-24T12:07:04;3.70;;;3.47;;
5967;SDS011;3010;51.028;4.170;2023-04-24T12:09:44;3.90;;;3.60;;
5967;SDS011;3010;51.028;4.170;2023-04-24T12:12:10;4.67;;;3.90;;
5967;SDS011;3010;51.028;4.170;2023-04-24T12:14:44;4.43;;;3.70;;
5967;SDS011;3010;51.028;4.170;2023-04-24T12:17:15;3.50;;;3.30;;
5967;SDS011;3010;51.028;4.170;2023-04-24T12:19:47;5.10;;;4.23;;
5967;SDS011;3010;51.028;4.170;2023-04-24T12:22:13;10.57;;;4.40;;
5967;SDS011;3010;51.028;4.170;2023-04-24T12:24:59;4.33;;;3.93;;
5967;SDS011;3010;51.028;4.170;2023-04-24T12:27:22;3.63;;;3.47;;
5967;SDS011;3010;51.028;4.170;2023-04-24T12:29:58;3.97;;;3.70;;
5967;SDS011;3010;51.028;4.170;2023-04-24T12:32:24;4.13;;;3.87;;
5967;SDS011;3010;51.028;4.170;2023-04-24T12:34:53;3.57;;;3.30;;
5967;SDS011;3010;51.028;4.170;2023-04-24T12:37:20;4.23;;;3.47;;
5967;SDS011;3010;51.028;4.170;2023-04-24T12:40:03;4.07;;;3.57;;
5967;SDS011;3010;51.028;4.170;2023-04-24T12:42:28;3.17;;;3.03;;
5967;SDS011;3010;51.028;4.170;2023-04-24T12:44:58;3.33;;;3.13;;
5967;SDS011;3010;51.028;4.170;2023-04-24T12:47:24;3.60;;;3.40;;
5967;SDS011;3010;51.028;4.170;2023-04-24T12:49:50;4.27;;;3.80;;
5967;SDS011;3010;51.028;4.170;2023-04-24T12:52:28;3.23;;;2.93;;
5967;SDS011;3010;51.028;4.170;2023-04-24T12:54:44;3.90;;;3.60;;
5967;SDS011;3010;51.028;4.170;2023-04-24T12:57:10;3.57;;;3.27;;
5967;SDS011;3010;51.028;4.170;2023-04-24T12:59:37;3.17;;;2.90;;
5967;SDS011;3010;51.028;4.170;2023-04-24T13:02:03;2.97;;;2.77;;
5967;SDS011;3010;51.028;4.170;2023-04-24T13:04:30;2.13;;;2.03;;
5967;SDS011;3010;51.028;4.170;2023-04-24T13:06:57;3.00;;;2.73;;
5967;SDS011;3010;51.028;4.170;2023-04-24T13:09:23;2.57;;;2.33;;
5967;SDS011;3010;51.028;4.170;2023-04-24T13:11:50;3.23;;;2.43;;
5967;SDS011;3010;51.028;4.170;2023-04-24T13:14:16;2.37;;;2.27;;
5967;SDS011;3010;51.028;4.170;2023-04-24T13:16:43;2.33;;;2.33;;
5967;SDS011;3010;51.028;4.170;2023-04-24T13:19:10;1.97;;;1.90;;
5967;SDS011;3010;51.028;4.170;2023-04-24T13:21:36;2.57;;;2.37;;
5967;SDS011;3010;51.028;4.170;2023-04-24T13:24:03;2.60;;;1.90;;
5967;SDS011;3010;51.028;4.170;2023-04-24T13:26:29;2.93;;;2.27;;
5967;SDS011;3010;51.028;4.170;2023-04-24T13:28:56;3.30;;;2.20;;
5967;SDS011;3010;51.028;4.170;2023-04-24T13:31:22;2.03;;;2.00;;
5967;SDS011;3010;51.028;4.170;2023-04-24T13:33:49;2.03;;;1.93;;
5967;SDS011;3010;51.028;4.170;2023-04-24T13:36:16;2.20;;;2.10;;
5967;SDS011;3010;51.028;4.170;2023-04-24T13:38:43;3.07;;;2.47;;
5967;SDS011;3010;51.028;4.170;2023-04-24T13:41:09;4.97;;;2.03;;
5967;SDS011;3010;51.028;4.170;2023-04-24T13:43:37;2.40;;;2.20;;
5967;SDS011;3010;51.028;4.170;2023-04-24T13:46:03;3.57;;;2.13;;
5967;SDS011;3010;51.028;4.170;2023-04-24T13:48:30;2.23;;;2.10;;
5967;SDS011;3010;51.028;4.170;2023-04-24T13:50:57;2.17;;;2.07;;
5967;SDS011;3010;51.028;4.170;2023-04-24T13:53:23;2.93;;;2.50;;
5967;SDS011;3010;51.028;4.170;2023-04-24T13:55:50;4.30;;;3.60;;
5967;SDS011;3010;51.028;4.170;2023-04-24T13:58:16;6.00;;;5.43;;
5967;SDS011;3010;51.028;4.170;2023-04-24T14:00:43;5.57;;;5.00;;
5967;SDS011;3010;51.028;4.170;2023-04-24T14:03:09;3.80;;;3.30;;
5967;SDS011;3010;51.028;4.170;2023-04-24T14:05:36;3.30;;;3.07;;
5967;SDS011;3010;51.028;4.170;2023-04-24T14:08:03;2.83;;;2.72;;
5967;SDS011;3010;51.028;4.170;2023-04-24T14:10:29;3.00;;;2.80;;
5967;SDS011;3010;51.028;4.170;2023-04-24T14:12:56;2.53;;;2.43;;
5967;SDS011;3010;51.028;4.170;2023-04-24T14:15:22;2.67;;;2.53;;
5967;SDS011;3010;51.028;4.170;2023-04-24T14:17:49;2.37;;;2.30;;
5967;SDS011;3010;51.028;4.170;2023-04-24T14:20:16;2.93;;;2.20;;
5967;SDS011;3010;51.028;4.170;2023-04-24T14:22:42;3.17;;;2.97;;
5967;SDS011;3010;51.028;4.170;2023-04-24T14:25:09;3.27;;;3.07;;
5967;SDS011;3010;51.028;4.170;2023-04-24T14:27:35;3.27;;;3.03;;
5967;SDS011;3010;51.028;4.170;2023-04-24T14:30:02;2.63;;;2.50;;
5967;SDS011;3010;51.028;4.170;2023-04-24T14:32:28;2.60;;;2.40;;
5967;SDS011;3010;51.028;4.170;2023-04-24T14:34:55;2.53;;;2.43;;
5967;SDS011;3010;51.028;4.170;2023-04-24T14:37:22;2.20;;;2.20;;
5967;SDS011;3010;51.028;4.170;2023-04-24T14:39:48;2.43;;;2.33;;
5967;SDS011;3010;51.028;4.170;2023-04-24T14:42:15;2.60;;;2.40;;
5967;SDS011;3010;51.028;4.170;2023-04-24T14:44:41;2.37;;;2.20;;
5967;SDS011;3010;51.028;4.170;2023-04-24T14:47:08;2.63;;;2.50;;
5967;SDS011;3010;51.028;4.170;2023-04-24T14:49:35;5.00;;;2.50;;
5967;SDS011;3010;51.028;4.170;2023-04-24T14:52:01;2.27;;;2.17;;
5967;SDS011;3010;51.028;4.170;2023-04-24T14:54:28;3.27;;;2.97;;
5967;SDS011;3010;51.028;4.170;2023-04-24T14:56:54;3.10;;;2.90;;
5967;SDS011;3010;51.028;4.170;2023-04-24T14:59:21;2.83;;;2.63;;
5967;SDS011;3010;51.028;4.170;2023-04-24T15:01:47;3.80;;;2.30;;
5967;SDS011;3010;51.028;4.170;2023-04-24T15:04:14;2.27;;;2.17;;
5967;SDS011;3010;51.028;4.170;2023-04-24T15:06:41;2.70;;;2.10;;
5967;SDS011;3010;51.028;4.170;2023-04-24T15:09:07;4.37;;;2.47;;
5967;SDS011;3010;51.028;4.170;2023-04-24T15:11:34;2.87;;;2.67;;